DEFMA EDDG-EDLY
Flight info
| Callsign | DEFMA |
|---|---|
| Flight time | 0h 18m |
| Altitude | 2000 |
| Route | VFR |
| Aircraft | DA40/L-S/L |
Departure
| Time | 2026-05-07 17:26 |
|---|---|
| Airport | Münster Osnabrück Airport (EDDG) |
Arrival
| Time | 2026-05-07 17:45 |
|---|---|
| Airport | Borken-Hoxfeld Airfield (EDLY) |
| Time | Latitude | Longitude | Altitude | Speed | Heading |
|---|---|---|---|---|---|
| 2026-05-07 17:13 | 52.13123 | 7.68233 | 161 ft | 0 kts | 270° |
| 2026-05-07 17:16 | 52.13124 | 7.68221 | 161 ft | 6 kts | 275° |
| 2026-05-07 17:16 | 52.13155 | 7.68210 | 161 ft | 6 kts | 357° |
| 2026-05-07 17:17 | 52.13182 | 7.68251 | 161 ft | 8 kts | 79° |
| 2026-05-07 17:17 | 52.13205 | 7.68342 | 161 ft | 8 kts | 24° |
| 2026-05-07 17:17 | 52.13259 | 7.68318 | 161 ft | 8 kts | 341° |
| 2026-05-07 17:17 | 52.13311 | 7.68290 | 161 ft | 7 kts | 341° |
| 2026-05-07 17:18 | 52.13329 | 7.68280 | 161 ft | 0 kts | 342° |
| 2026-05-07 17:24 | 52.13329 | 7.68279 | 161 ft | 1 kts | 342° |
| 2026-05-07 17:24 | 52.13367 | 7.68257 | 162 ft | 8 kts | 338° |
| 2026-05-07 17:24 | 52.13405 | 7.68210 | 162 ft | 5 kts | 275° |
| 2026-05-07 17:25 | 52.13405 | 7.68200 | 162 ft | 0 kts | 252° |
| 2026-05-07 17:25 | 52.13404 | 7.68198 | 162 ft | 5 kts | 252° |
| 2026-05-07 17:25 | 52.13328 | 7.67835 | 160 ft | 60 kts | 251° |
| 2026-05-07 17:26 | 52.13159 | 7.67029 | 267 ft | 79 kts | 251° |
| 2026-05-07 17:26 | 52.12970 | 7.66174 | 484 ft | 82 kts | 248° |
| 2026-05-07 17:26 | 52.12556 | 7.65504 | 705 ft | 90 kts | 201° |
| 2026-05-07 17:26 | 52.11942 | 7.65160 | 886 ft | 95 kts | 195° |
| 2026-05-07 17:27 | 52.11295 | 7.64828 | 1019 ft | 103 kts | 194° |
| 2026-05-07 17:27 | 52.10574 | 7.64505 | 1025 ft | 110 kts | 192° |
| 2026-05-07 17:27 | 52.09813 | 7.64186 | 1045 ft | 116 kts | 192° |
| 2026-05-07 17:27 | 52.09025 | 7.63863 | 1035 ft | 121 kts | 193° |
| 2026-05-07 17:28 | 52.08192 | 7.63517 | 1073 ft | 122 kts | 192° |
| 2026-05-07 17:28 | 52.07374 | 7.63109 | 1076 ft | 124 kts | 199° |
| 2026-05-07 17:28 | 52.06837 | 7.62753 | 1054 ft | 127 kts | 201° |
| 2026-05-07 17:28 | 52.05764 | 7.61931 | 1031 ft | 131 kts | 206° |
| 2026-05-07 17:29 | 52.04945 | 7.61262 | 999 ft | 131 kts | 206° |
| 2026-05-07 17:29 | 52.04166 | 7.60590 | 1108 ft | 122 kts | 210° |
| 2026-05-07 17:29 | 52.03517 | 7.59738 | 1244 ft | 118 kts | 225° |
| 2026-05-07 17:29 | 52.02979 | 7.58721 | 1179 ft | 124 kts | 231° |
| 2026-05-07 17:30 | 52.02437 | 7.57595 | 1185 ft | 126 kts | 233° |
| 2026-05-07 17:30 | 52.02081 | 7.56829 | 1207 ft | 127 kts | 234° |
| 2026-05-07 17:30 | 52.01554 | 7.55652 | 1197 ft | 130 kts | 235° |
| 2026-05-07 17:30 | 52.01034 | 7.54440 | 1201 ft | 132 kts | 236° |
| 2026-05-07 17:31 | 52.00516 | 7.53201 | 1186 ft | 134 kts | 238° |
| 2026-05-07 17:31 | 52.00021 | 7.51932 | 1188 ft | 132 kts | 238° |
| 2026-05-07 17:31 | 51.99541 | 7.50682 | 1211 ft | 130 kts | 239° |
| 2026-05-07 17:31 | 51.99055 | 7.49443 | 1210 ft | 131 kts | 238° |
| 2026-05-07 17:32 | 51.98560 | 7.48199 | 1209 ft | 131 kts | 239° |
| 2026-05-07 17:32 | 51.98065 | 7.46969 | 1218 ft | 130 kts | 238° |
| 2026-05-07 17:32 | 51.97576 | 7.45738 | 1210 ft | 128 kts | 238° |
| 2026-05-07 17:32 | 51.97093 | 7.44538 | 1210 ft | 126 kts | 239° |
| 2026-05-07 17:33 | 51.96611 | 7.43341 | 1209 ft | 128 kts | 239° |
| 2026-05-07 17:33 | 51.96172 | 7.42086 | 1208 ft | 129 kts | 243° |
| 2026-05-07 17:33 | 51.95728 | 7.40821 | 1212 ft | 129 kts | 242° |
| 2026-05-07 17:33 | 51.95286 | 7.39543 | 1206 ft | 131 kts | 242° |
| 2026-05-07 17:34 | 51.94850 | 7.38270 | 1219 ft | 126 kts | 243° |
| 2026-05-07 17:34 | 51.94420 | 7.37031 | 1222 ft | 126 kts | 242° |
| 2026-05-07 17:34 | 51.93993 | 7.35769 | 1225 ft | 129 kts | 242° |
| 2026-05-07 17:34 | 51.93559 | 7.34477 | 1227 ft | 133 kts | 242° |
| 2026-05-07 17:35 | 51.93156 | 7.33125 | 1220 ft | 134 kts | 248° |
| 2026-05-07 17:35 | 51.92798 | 7.31738 | 1218 ft | 132 kts | 249° |
| 2026-05-07 17:35 | 51.92448 | 7.30371 | 1217 ft | 131 kts | 248° |
| 2026-05-07 17:35 | 51.92110 | 7.29028 | 1217 ft | 130 kts | 249° |
| 2026-05-07 17:36 | 51.91755 | 7.27662 | 1224 ft | 130 kts | 248° |
| 2026-05-07 17:36 | 51.91412 | 7.26309 | 1222 ft | 132 kts | 249° |
| 2026-05-07 17:36 | 51.91059 | 7.24937 | 1220 ft | 132 kts | 249° |
| 2026-05-07 17:36 | 51.90704 | 7.23571 | 1221 ft | 132 kts | 249° |
| 2026-05-07 17:37 | 51.90336 | 7.22195 | 1210 ft | 131 kts | 248° |
| 2026-05-07 17:37 | 51.89985 | 7.20847 | 1206 ft | 128 kts | 248° |
| 2026-05-07 17:37 | 51.89641 | 7.19547 | 1210 ft | 127 kts | 248° |
| 2026-05-07 17:37 | 51.89298 | 7.18230 | 1210 ft | 127 kts | 248° |
| 2026-05-07 17:38 | 51.88955 | 7.16896 | 1208 ft | 127 kts | 248° |
| 2026-05-07 17:38 | 51.88627 | 7.15630 | 1326 ft | 116 kts | 248° |
| 2026-05-07 17:38 | 51.88339 | 7.14524 | 1651 ft | 100 kts | 248° |
| 2026-05-07 17:38 | 51.88039 | 7.13376 | 1597 ft | 116 kts | 248° |
| 2026-05-07 17:39 | 51.87712 | 7.12118 | 1535 ft | 127 kts | 248° |
| 2026-05-07 17:39 | 51.87365 | 7.10757 | 1433 ft | 134 kts | 248° |
| 2026-05-07 17:39 | 51.87003 | 7.09335 | 1324 ft | 137 kts | 248° |
| 2026-05-07 17:39 | 51.86641 | 7.07900 | 1225 ft | 139 kts | 248° |
| 2026-05-07 17:40 | 51.86276 | 7.06481 | 1222 ft | 135 kts | 248° |
| 2026-05-07 17:40 | 51.85922 | 7.05083 | 1220 ft | 133 kts | 249° |
| 2026-05-07 17:40 | 51.85566 | 7.03707 | 1219 ft | 132 kts | 248° |
| 2026-05-07 17:40 | 51.85217 | 7.02344 | 1218 ft | 131 kts | 249° |
| 2026-05-07 17:41 | 51.84862 | 7.00996 | 1215 ft | 130 kts | 248° |
| 2026-05-07 17:41 | 51.84514 | 6.99646 | 1212 ft | 130 kts | 248° |
| 2026-05-07 17:41 | 51.84173 | 6.98306 | 1212 ft | 128 kts | 248° |
| 2026-05-07 17:41 | 51.83832 | 6.96982 | 1217 ft | 127 kts | 248° |
| 2026-05-07 17:42 | 51.83489 | 6.95668 | 1217 ft | 127 kts | 248° |
| 2026-05-07 17:42 | 51.83141 | 6.94359 | 1222 ft | 127 kts | 248° |
| 2026-05-07 17:42 | 51.82797 | 6.93045 | 1222 ft | 126 kts | 249° |
| 2026-05-07 17:42 | 51.82530 | 6.91688 | 1169 ft | 129 kts | 266° |
| 2026-05-07 17:43 | 51.82591 | 6.90242 | 1112 ft | 128 kts | 280° |
| 2026-05-07 17:43 | 51.82811 | 6.88858 | 1050 ft | 128 kts | 296° |
| 2026-05-07 17:43 | 51.83201 | 6.87585 | 966 ft | 123 kts | 302° |
| 2026-05-07 17:43 | 51.83596 | 6.86425 | 847 ft | 110 kts | 303° |
| 2026-05-07 17:44 | 51.83942 | 6.85440 | 734 ft | 90 kts | 303° |
| 2026-05-07 17:44 | 51.84230 | 6.84617 | 611 ft | 79 kts | 304° |
| 2026-05-07 17:44 | 51.84508 | 6.83851 | 494 ft | 78 kts | 304° |
| 2026-05-07 17:44 | 51.84768 | 6.83079 | 367 ft | 77 kts | 298° |
| 2026-05-07 17:45 | 51.85023 | 6.82332 | 219 ft | 77 kts | 298° |
| 2026-05-07 17:45 | 51.85249 | 6.81655 | 162 ft | 54 kts | 299° |
| 2026-05-07 17:45 | 51.85333 | 6.81406 | 162 ft | 8 kts | 287° |
| 2026-05-07 17:45 | 51.85304 | 6.81402 | 162 ft | 8 kts | 109° |
| 2026-05-07 17:46 | 51.85272 | 6.81514 | 164 ft | 15 kts | 118° |
| 2026-05-07 17:46 | 51.85231 | 6.81669 | 162 ft | 10 kts | 108° |
| 2026-05-07 17:46 | 51.85199 | 6.81789 | 163 ft | 13 kts | 116° |
| 2026-05-07 17:46 | 51.85152 | 6.81927 | 160 ft | 13 kts | 120° |
| 2026-05-07 17:47 | 51.85127 | 6.81986 | 159 ft | 5 kts | 115° |
| 2026-05-07 17:47 | 51.85115 | 6.82034 | 157 ft | 3 kts | 71° |
| 2026-05-07 17:47 | 51.85124 | 6.82022 | 158 ft | 2 kts | 297° |
| 2026-05-07 17:47 | 51.85137 | 6.81983 | 159 ft | 20 kts | 300° |
| 2026-05-07 17:48 | 51.85280 | 6.81564 | 166 ft | 64 kts | 299° |
| 2026-05-07 17:48 | 51.85521 | 6.80850 | 328 ft | 73 kts | 297° |
| 2026-05-07 17:48 | 51.85760 | 6.80094 | 507 ft | 81 kts | 297° |
| 2026-05-07 17:48 | 51.85952 | 6.79170 | 700 ft | 89 kts | 269° |
| 2026-05-07 17:49 | 51.85631 | 6.78328 | 912 ft | 92 kts | 208° |
| 2026-05-07 17:49 | 51.85053 | 6.77852 | 1132 ft | 95 kts | 182° |
| 2026-05-07 17:49 | 51.84474 | 6.78191 | 1390 ft | 87 kts | 128° |
| 2026-05-07 17:49 | 51.84130 | 6.79031 | 1532 ft | 94 kts | 112° |